createdAt,value
2019-02-02T00:00:22.862Z,18.80
2019-02-02T00:01:22.898Z,16.50
2019-02-02T00:02:22.844Z,16.90
2019-02-02T00:03:22.851Z,15.50
2019-02-02T00:04:22.816Z,18.50
2019-02-02T00:05:22.831Z,21.40
2019-02-02T00:06:22.914Z,18.50
2019-02-02T00:07:22.810Z,15.50
2019-02-02T00:08:22.847Z,16.00
2019-02-02T00:09:22.852Z,15.00
2019-02-02T00:10:22.749Z,18.60
2019-02-02T00:11:22.801Z,17.30
2019-02-02T00:12:22.819Z,17.70
2019-02-02T00:13:22.723Z,17.80
2019-02-02T00:14:22.774Z,15.90
2019-02-02T00:15:22.734Z,16.40
2019-02-02T00:16:22.734Z,16.20
2019-02-02T00:17:22.781Z,15.30
2019-02-02T00:18:22.672Z,17.10
2019-02-02T00:19:22.660Z,17.30
2019-02-02T00:20:22.688Z,16.40
2019-02-02T00:21:22.640Z,15.80
2019-02-02T00:22:22.865Z,15.30
2019-02-02T00:23:22.700Z,15.70
2019-02-02T00:24:22.687Z,16.20
2019-02-02T00:25:22.624Z,15.80
2019-02-02T00:26:22.634Z,16.70
2019-02-02T00:27:22.639Z,15.00
2019-02-02T00:28:22.672Z,16.10
2019-02-02T00:29:22.641Z,17.40
2019-02-02T00:30:22.583Z,16.70
2019-02-02T00:31:22.561Z,16.20
2019-02-02T00:32:22.567Z,16.40
2019-02-02T00:33:22.661Z,16.50
2019-02-02T00:34:22.519Z,14.80
2019-02-02T00:35:22.538Z,17.50
2019-02-02T00:36:22.543Z,15.60
2019-02-02T00:37:22.552Z,14.90
2019-02-02T00:38:22.508Z,16.50
2019-02-02T00:39:22.496Z,16.20
2019-02-02T00:40:22.508Z,15.40
2019-02-02T00:41:22.474Z,15.10
2019-02-02T00:42:22.453Z,15.00
2019-02-02T00:43:22.477Z,14.70
2019-02-02T00:44:22.440Z,17.10
2019-02-02T00:45:22.449Z,18.30
2019-02-02T00:46:22.425Z,17.60
2019-02-02T00:47:22.424Z,17.30
2019-02-02T00:48:22.472Z,16.20
2019-02-02T00:49:23.325Z,16.00
2019-02-02T00:50:22.366Z,17.90
2019-02-02T00:51:22.360Z,17.20
2019-02-02T00:52:22.354Z,17.70
2019-02-02T00:53:22.336Z,18.00
2019-02-02T00:54:22.366Z,16.00
2019-02-02T00:55:22.372Z,16.10
2019-02-02T00:56:22.294Z,16.30
2019-02-02T00:57:22.297Z,17.90
2019-02-02T00:58:22.282Z,16.80
2019-02-02T00:59:22.267Z,19.00
2019-02-02T01:00:22.275Z,16.70
2019-02-02T01:01:22.243Z,17.60
2019-02-02T01:02:22.242Z,17.40
2019-02-02T01:03:22.236Z,17.50
2019-02-02T01:04:22.242Z,17.40
2019-02-02T01:05:22.180Z,19.70
2019-02-02T01:06:22.168Z,18.80
2019-02-02T01:07:22.159Z,18.80
2019-02-02T01:08:22.139Z,21.20
2019-02-02T01:09:22.129Z,21.00
2019-02-02T01:10:22.148Z,21.40
2019-02-02T01:11:22.112Z,21.20
2019-02-02T01:12:22.099Z,20.00
2019-02-02T01:13:22.089Z,18.00
2019-02-02T01:14:22.088Z,16.60
2019-02-02T01:15:22.094Z,18.40
2019-02-02T01:16:22.093Z,18.90
2019-02-02T01:17:22.048Z,18.60
2019-02-02T01:18:22.030Z,18.50
2019-02-02T01:19:22.082Z,18.40
2019-02-02T01:20:22.009Z,18.00
2019-02-02T01:21:22.013Z,18.00
2019-02-02T01:22:22.021Z,19.60
2019-02-02T01:23:21.990Z,19.30
2019-02-02T01:24:21.967Z,22.30
2019-02-02T01:25:21.960Z,22.60
2019-02-02T01:26:21.954Z,20.00
2019-02-02T01:27:21.987Z,19.70
2019-02-02T01:28:21.941Z,21.80
2019-02-02T01:29:21.921Z,21.60
2019-02-02T01:30:21.982Z,20.20
2019-02-02T01:31:21.935Z,20.00
2019-02-02T01:32:21.913Z,19.80
2019-02-02T01:33:21.899Z,18.60
2019-02-02T01:34:21.893Z,18.70
2019-02-02T01:35:21.860Z,18.50
2019-02-02T01:36:21.850Z,18.90
2019-02-02T01:37:21.842Z,18.90
2019-02-02T01:38:21.820Z,21.50
2019-02-02T01:39:21.842Z,18.40
2019-02-02T01:40:21.829Z,19.90
2019-02-02T01:41:21.799Z,19.70
2019-02-02T01:42:21.779Z,18.10
2019-02-02T01:43:21.774Z,20.90
2019-02-02T01:44:21.813Z,18.40
2019-02-02T01:45:21.750Z,19.80
2019-02-02T01:46:21.753Z,19.30
2019-02-02T01:47:21.734Z,19.50
2019-02-02T01:48:21.742Z,19.10
2019-02-02T01:49:21.734Z,18.80
2019-02-02T01:50:21.729Z,18.30
2019-02-02T01:51:21.689Z,19.70
2019-02-02T01:52:21.673Z,20.20
2019-02-02T01:53:21.673Z,17.50
2019-02-02T01:54:21.692Z,19.70
2019-02-02T01:55:21.656Z,20.00
2019-02-02T01:56:21.635Z,20.30
2019-02-02T01:57:21.686Z,20.70
2019-02-02T01:58:21.617Z,21.90
2019-02-02T01:59:21.609Z,20.90
2019-02-02T02:00:21.624Z,20.50
2019-02-02T02:01:21.587Z,22.30
2019-02-02T02:02:21.575Z,20.80
2019-02-02T02:03:21.570Z,22.00
2019-02-02T02:04:21.552Z,22.20
2019-02-02T02:05:21.538Z,21.10
2019-02-02T02:06:21.562Z,21.90
2019-02-02T02:07:21.538Z,20.90
2019-02-02T02:08:21.519Z,22.50
2019-02-02T02:09:21.526Z,23.20
2019-02-02T02:10:21.486Z,22.30
2019-02-02T02:11:21.490Z,24.10
2019-02-02T02:12:21.499Z,23.40
2019-02-02T02:13:21.465Z,21.50
2019-02-02T02:14:21.454Z,22.20
2019-02-02T02:15:21.432Z,23.70
2019-02-02T02:16:21.435Z,21.10
2019-02-02T02:17:21.444Z,20.30
2019-02-02T02:18:21.409Z,21.80
2019-02-02T02:19:21.398Z,21.80
2019-02-02T02:20:24.594Z,21.50
2019-02-02T02:21:21.376Z,20.00
2019-02-02T02:22:21.399Z,21.70
2019-02-02T02:23:21.356Z,21.80
2019-02-02T02:24:21.341Z,21.10
2019-02-02T02:25:21.333Z,20.90
2019-02-02T02:26:21.329Z,20.50
2019-02-02T02:27:21.347Z,21.80
2019-02-02T02:28:28.100Z,22.00
2019-02-02T02:29:22.316Z,21.10
2019-02-02T02:30:21.312Z,21.50
2019-02-02T02:31:21.283Z,21.20
2019-02-02T02:32:21.262Z,20.70
2019-02-02T02:33:21.281Z,21.80
2019-02-02T02:34:21.260Z,20.20
2019-02-02T02:35:21.224Z,21.60
2019-02-02T02:36:21.214Z,21.50
2019-02-02T02:37:21.247Z,21.50
2019-02-02T02:38:21.199Z,22.50
2019-02-02T02:39:21.191Z,21.90
2019-02-02T02:40:21.177Z,21.00
2019-02-02T02:41:21.168Z,21.70
2019-02-02T02:42:21.265Z,20.50
2019-02-02T02:43:21.176Z,22.10
2019-02-02T02:44:21.144Z,21.40
2019-02-02T02:45:21.132Z,22.30
2019-02-02T02:46:21.117Z,21.70
2019-02-02T02:47:21.128Z,22.00
2019-02-02T02:48:21.105Z,22.50
2019-02-02T02:49:21.082Z,22.00
2019-02-02T02:50:21.076Z,23.90
2019-02-02T02:51:21.109Z,21.40
2019-02-02T02:52:21.092Z,22.90
2019-02-02T02:53:21.046Z,22.80
2019-02-02T02:54:21.032Z,23.00
2019-02-02T02:55:21.029Z,20.70
2019-02-02T02:56:21.012Z,21.40
2019-02-02T02:57:20.997Z,21.20
2019-02-02T02:58:21.029Z,21.00
2019-02-02T02:59:20.993Z,21.40
2019-02-02T03:00:20.969Z,21.90
2019-02-02T03:01:20.955Z,21.20
2019-02-02T03:02:20.953Z,21.40
2019-02-02T03:03:20.974Z,22.30
2019-02-02T03:04:20.947Z,23.50
2019-02-02T03:05:20.917Z,22.10
2019-02-02T03:06:20.900Z,22.60
2019-02-02T03:07:20.897Z,21.40
2019-02-02T03:08:20.879Z,22.00
2019-02-02T03:09:20.896Z,21.20
2019-02-02T03:10:20.866Z,23.40
2019-02-02T03:11:20.857Z,21.90
2019-02-02T03:12:20.846Z,22.70
2019-02-02T03:13:20.839Z,22.90
2019-02-02T03:14:20.881Z,24.50
2019-02-02T03:15:20.805Z,22.40
2019-02-02T03:16:20.807Z,23.00
2019-02-02T03:17:20.791Z,23.20
2019-02-02T03:18:20.776Z,24.30
2019-02-02T03:19:20.763Z,22.90
2019-02-02T03:20:20.789Z,23.80
2019-02-02T03:21:20.744Z,23.30
2019-02-02T03:22:20.739Z,24.80
2019-02-02T03:23:20.730Z,24.80
2019-02-02T03:24:20.719Z,22.90
2019-02-02T03:25:20.742Z,23.10
2019-02-02T03:26:20.694Z,23.00
2019-02-02T03:27:20.682Z,23.80
2019-02-02T03:28:20.667Z,23.30
2019-02-02T03:29:20.666Z,24.20
2019-02-02T03:30:20.684Z,23.90
2019-02-02T03:31:20.683Z,22.70
2019-02-02T03:32:20.656Z,22.50
2019-02-02T03:33:20.623Z,23.00
2019-02-02T03:34:20.614Z,21.40
2019-02-02T03:35:20.605Z,22.80
2019-02-02T03:36:20.639Z,22.80
2019-02-02T03:37:20.580Z,22.60
2019-02-02T03:38:20.564Z,22.70
2019-02-02T03:39:20.607Z,23.80
2019-02-02T03:40:20.550Z,22.00
2019-02-02T03:41:20.545Z,21.10
2019-02-02T03:42:20.558Z,22.40
2019-02-02T03:43:20.522Z,23.30
2019-02-02T03:44:20.581Z,22.60
2019-02-02T03:45:20.498Z,21.60
2019-02-02T03:46:20.482Z,21.70
2019-02-02T03:47:20.503Z,24.00
2019-02-02T03:48:20.483Z,22.00
2019-02-02T03:49:20.457Z,23.10
2019-02-02T03:50:20.444Z,23.30
2019-02-02T03:51:20.426Z,23.80
2019-02-02T03:52:20.437Z,24.40
2019-02-02T03:53:20.442Z,22.60
2019-02-02T03:54:20.427Z,23.10
2019-02-02T03:55:20.392Z,22.20
2019-02-02T03:56:20.384Z,22.50
2019-02-02T03:57:20.373Z,22.00
2019-02-02T03:58:20.366Z,24.20
2019-02-02T03:59:20.366Z,23.60
2019-02-02T04:00:20.342Z,22.00
2019-02-02T04:01:20.324Z,24.40
2019-02-02T04:02:20.324Z,23.20
2019-02-02T04:03:20.310Z,23.50
2019-02-02T04:04:20.329Z,22.50
2019-02-02T04:05:20.293Z,24.40
2019-02-02T04:06:20.279Z,24.00
2019-02-02T04:07:20.268Z,23.60
2019-02-02T04:08:20.275Z,22.40
2019-02-02T04:09:20.283Z,23.40
2019-02-02T04:10:20.368Z,22.80
2019-02-02T04:11:20.249Z,24.00
2019-02-02T04:12:20.213Z,22.10
2019-02-02T04:13:20.216Z,22.50
2019-02-02T04:14:20.193Z,23.40
2019-02-02T04:15:20.222Z,23.10
2019-02-02T04:16:20.187Z,22.90
2019-02-02T04:17:20.189Z,23.30
2019-02-02T04:18:20.150Z,23.00
2019-02-02T04:19:20.256Z,23.00
2019-02-02T04:20:20.135Z,23.40
2019-02-02T04:21:20.165Z,23.50
2019-02-02T04:22:20.112Z,22.50
2019-02-02T04:23:20.125Z,22.10
2019-02-02T04:24:20.083Z,22.90
2019-02-02T04:25:20.136Z,22.60
2019-02-02T04:26:20.091Z,22.90
2019-02-02T04:27:20.056Z,23.10
2019-02-02T04:28:20.053Z,21.60
2019-02-02T04:29:20.132Z,23.50
2019-02-02T04:30:20.067Z,23.00
2019-02-02T04:31:20.011Z,23.10
2019-02-02T04:32:20.006Z,21.90
2019-02-02T04:33:20.144Z,24.20
2019-02-02T04:34:19.999Z,23.40
2019-02-02T04:35:19.976Z,23.80
2019-02-02T04:36:20.034Z,25.40
2019-02-02T04:37:19.948Z,24.20
2019-02-02T04:38:19.943Z,23.80
2019-02-02T04:39:19.934Z,24.40
2019-02-02T04:40:19.946Z,21.90
2019-02-02T04:41:19.942Z,23.20
2019-02-02T04:42:19.914Z,24.70
2019-02-02T04:43:19.886Z,23.60
2019-02-02T04:44:19.871Z,24.10
2019-02-02T04:45:19.869Z,23.40
2019-02-02T04:46:19.867Z,23.50
2019-02-02T04:47:19.894Z,22.40
2019-02-02T04:48:19.839Z,24.00
2019-02-02T04:49:19.828Z,25.60
2019-02-02T04:50:19.809Z,23.90
2019-02-02T04:51:19.807Z,23.90
2019-02-02T04:52:19.799Z,24.10
2019-02-02T04:53:19.842Z,22.40
2019-02-02T04:54:19.770Z,24.70
2019-02-02T04:55:19.758Z,24.50
2019-02-02T04:56:19.749Z,23.10
2019-02-02T04:57:19.758Z,23.00
2019-02-02T04:58:19.743Z,22.80
2019-02-02T04:59:29.078Z,24.60
2019-02-02T05:00:20.712Z,23.30
2019-02-02T05:01:19.700Z,24.70
2019-02-02T05:02:19.685Z,21.90
2019-02-02T05:03:19.683Z,23.50
2019-02-02T05:04:19.686Z,24.70
2019-02-02T05:05:19.682Z,23.10
2019-02-02T05:06:19.650Z,23.20
2019-02-02T05:07:19.752Z,24.10
2019-02-02T05:08:19.630Z,22.40
2019-02-02T05:09:19.630Z,22.50
2019-02-02T05:10:19.633Z,25.00
2019-02-02T05:11:19.599Z,23.10
2019-02-02T05:12:19.586Z,22.90
2019-02-02T05:13:19.573Z,22.20
2019-02-02T05:14:19.557Z,24.40
2019-02-02T05:15:19.585Z,22.30
2019-02-02T05:16:19.537Z,23.00
2019-02-02T05:17:19.526Z,22.90
2019-02-02T05:18:19.590Z,23.90
2019-02-02T05:19:19.513Z,23.50
2019-02-02T05:20:19.502Z,22.10
2019-02-02T05:21:19.523Z,23.20
2019-02-02T05:22:19.477Z,22.30
2019-02-02T05:23:19.475Z,23.00
2019-02-02T05:24:19.461Z,24.00
2019-02-02T05:25:19.451Z,22.20
2019-02-02T05:26:19.467Z,22.20
2019-02-02T05:27:19.459Z,21.70
2019-02-02T05:28:19.413Z,22.50
2019-02-02T05:29:19.400Z,23.00
2019-02-02T05:30:19.406Z,22.80
2019-02-02T05:31:19.396Z,23.70
2019-02-02T05:32:19.403Z,22.40
2019-02-02T05:33:19.380Z,22.60
2019-02-02T05:34:19.364Z,22.50
2019-02-02T05:35:19.338Z,21.90
2019-02-02T05:36:19.335Z,23.80
2019-02-02T05:37:19.353Z,23.90
2019-02-02T05:38:19.315Z,21.40
2019-02-02T05:39:19.311Z,22.70
2019-02-02T05:40:19.293Z,22.30
2019-02-02T05:41:19.273Z,23.90
2019-02-02T05:42:19.335Z,22.60
2019-02-02T05:43:19.281Z,23.30
2019-02-02T05:44:19.254Z,22.60
2019-02-02T05:45:19.255Z,23.80
2019-02-02T05:46:19.224Z,22.30
2019-02-02T05:47:19.213Z,22.20
2019-02-02T05:48:19.278Z,22.80
2019-02-02T05:49:19.190Z,22.30
2019-02-02T05:50:19.195Z,23.40
2019-02-02T05:51:19.181Z,23.70
2019-02-02T05:52:19.206Z,23.00
2019-02-02T05:53:19.198Z,22.70
2019-02-02T05:54:19.140Z,23.60
2019-02-02T05:55:19.137Z,24.30
2019-02-02T05:56:19.140Z,27.20
2019-02-02T05:57:19.123Z,25.70
2019-02-02T05:58:19.101Z,23.20
2019-02-02T05:59:19.147Z,25.10
2019-02-02T06:00:19.103Z,26.20
2019-02-02T06:01:19.069Z,26.40
2019-02-02T06:02:19.074Z,22.90
2019-02-02T06:03:19.068Z,23.90
2019-02-02T06:04:19.040Z,24.10
2019-02-02T06:05:19.435Z,23.70
2019-02-02T06:06:19.037Z,23.90
2019-02-02T06:07:19.013Z,22.70
2019-02-02T06:08:19.004Z,20.50
2019-02-02T06:09:19.029Z,25.00
2019-02-02T06:10:18.979Z,23.30
2019-02-02T06:11:19.069Z,23.30
2019-02-02T06:12:18.960Z,23.10
2019-02-02T06:13:19.010Z,24.80
2019-02-02T06:14:18.944Z,22.80
2019-02-02T06:15:18.933Z,23.60
2019-02-02T06:16:18.943Z,23.20
2019-02-02T06:17:18.903Z,25.10
2019-02-02T06:18:18.891Z,21.90
2019-02-02T06:19:18.903Z,25.20
2019-02-02T06:20:18.873Z,24.30
2019-02-02T06:21:18.905Z,24.10
2019-02-02T06:22:18.848Z,24.90
2019-02-02T06:23:18.849Z,24.30
2019-02-02T06:24:18.832Z,23.30
2019-02-02T06:25:18.846Z,24.90
2019-02-02T06:26:18.812Z,23.90
2019-02-02T06:27:18.834Z,23.40
2019-02-02T06:28:18.816Z,24.70
2019-02-02T06:29:18.784Z,23.80
2019-02-02T06:30:18.771Z,21.70
2019-02-02T06:31:18.771Z,24.00
2019-02-02T06:32:18.740Z,24.70
2019-02-02T06:33:18.827Z,22.30
2019-02-02T06:34:18.727Z,25.50
2019-02-02T06:35:18.729Z,23.20
2019-02-02T06:36:18.737Z,24.90
2019-02-02T06:37:18.708Z,23.50
2019-02-02T06:38:18.681Z,23.10
2019-02-02T06:39:18.666Z,23.60
2019-02-02T06:40:18.691Z,26.00
2019-02-02T06:41:18.672Z,27.50
2019-02-02T06:42:18.662Z,25.40
2019-02-02T06:43:18.666Z,26.90
2019-02-02T06:44:18.624Z,27.80
2019-02-02T06:45:18.653Z,25.30
2019-02-02T06:46:18.609Z,24.40
2019-02-02T06:47:18.594Z,24.90
2019-02-02T06:48:18.593Z,25.10
2019-02-02T06:49:18.592Z,25.00
2019-02-02T06:50:18.552Z,23.10
2019-02-02T06:51:18.620Z,24.20
2019-02-02T06:52:18.566Z,24.70
2019-02-02T06:53:18.537Z,24.60
2019-02-02T06:54:18.562Z,23.90
2019-02-02T06:55:18.523Z,27.50
2019-02-02T06:56:18.498Z,26.60
2019-02-02T06:57:18.490Z,25.20
2019-02-02T06:58:18.471Z,26.10
2019-02-02T06:59:18.460Z,24.70
2019-02-02T07:00:18.502Z,22.80
2019-02-02T07:01:18.469Z,23.50
2019-02-02T07:02:18.514Z,24.80
2019-02-02T07:03:18.416Z,24.70
2019-02-02T07:04:18.408Z,23.20
2019-02-02T07:05:18.397Z,25.00
2019-02-02T07:06:18.420Z,22.30
2019-02-02T07:07:18.390Z,24.60
2019-02-02T07:08:18.369Z,23.10
2019-02-02T07:09:18.360Z,23.50
2019-02-02T07:10:18.343Z,23.30
2019-02-02T07:11:18.366Z,22.40
2019-02-02T07:12:18.334Z,24.00
2019-02-02T07:13:18.319Z,24.80
2019-02-02T07:14:18.308Z,23.30
2019-02-02T07:15:18.299Z,23.40
2019-02-02T07:16:18.302Z,23.40
2019-02-02T07:17:18.293Z,26.20
2019-02-02T07:18:18.306Z,22.30
2019-02-02T07:19:18.306Z,21.90
2019-02-02T07:20:18.245Z,24.00
2019-02-02T07:21:18.234Z,23.10
2019-02-02T07:22:18.220Z,23.60
2019-02-02T07:23:18.241Z,23.80
2019-02-02T07:24:18.211Z,23.30
2019-02-02T07:25:18.210Z,24.70
2019-02-02T07:26:18.182Z,22.10
2019-02-02T07:27:18.183Z,23.40
2019-02-02T07:28:18.191Z,23.90
2019-02-02T07:29:18.159Z,21.50
2019-02-02T07:30:28.157Z,23.30
2019-02-02T07:31:19.122Z,22.50
2019-02-02T07:32:18.122Z,24.40
2019-02-02T07:33:18.119Z,24.90
2019-02-02T07:34:18.114Z,22.80
2019-02-02T07:35:18.086Z,23.80
2019-02-02T07:36:18.098Z,23.80
2019-02-02T07:37:18.068Z,22.60
2019-02-02T07:38:18.112Z,23.20
2019-02-02T07:39:18.069Z,24.10
2019-02-02T07:40:18.038Z,23.80
2019-02-02T07:41:18.059Z,23.70
2019-02-02T07:42:18.020Z,23.00
2019-02-02T07:43:18.004Z,25.80
2019-02-02T07:44:17.990Z,24.60
2019-02-02T07:45:18.017Z,23.20
2019-02-02T07:46:17.977Z,25.20
2019-02-02T07:47:17.968Z,22.50
2019-02-02T07:48:17.957Z,24.40
2019-02-02T07:49:17.992Z,26.20
2019-02-02T07:50:17.986Z,25.80
2019-02-02T07:51:17.921Z,22.90
2019-02-02T07:52:17.913Z,24.40
2019-02-02T07:53:17.901Z,22.40
2019-02-02T07:54:17.890Z,24.70
2019-02-02T07:55:17.894Z,24.60
2019-02-02T07:56:17.921Z,23.80
2019-02-02T07:57:17.861Z,23.10
2019-02-02T07:58:17.855Z,22.30
2019-02-02T07:59:17.852Z,24.90
2019-02-02T08:00:17.849Z,22.90
2019-02-02T08:01:17.846Z,24.70
2019-02-02T08:02:17.800Z,28.00
2019-02-02T08:03:17.796Z,25.00
2019-02-02T08:04:17.789Z,25.50
2019-02-02T08:05:17.775Z,24.50
2019-02-02T08:06:17.783Z,24.70
2019-02-02T08:07:17.792Z,26.60
2019-02-02T08:08:17.733Z,26.20
2019-02-02T08:09:17.725Z,24.70
2019-02-02T08:10:17.724Z,23.80
2019-02-02T08:11:18.567Z,22.80
2019-02-02T08:12:19.554Z,25.10
2019-02-02T08:13:17.689Z,24.60
2019-02-02T08:14:17.688Z,24.40
2019-02-02T08:15:17.666Z,21.90
2019-02-02T08:16:17.656Z,25.20
2019-02-02T08:17:17.692Z,27.10
2019-02-02T08:18:17.647Z,27.40
2019-02-02T08:19:17.659Z,27.80
2019-02-02T08:20:17.712Z,27.40
2019-02-02T08:21:17.597Z,25.90
2019-02-02T08:22:17.639Z,26.30
2019-02-02T08:23:17.610Z,25.00
2019-02-02T08:24:17.659Z,25.10
2019-02-02T08:25:17.566Z,23.10
2019-02-02T08:26:17.585Z,25.00
2019-02-02T08:27:17.549Z,22.50
2019-02-02T08:28:17.549Z,21.20
2019-02-02T08:29:17.520Z,23.50
2019-02-02T08:30:17.522Z,22.60
2019-02-02T08:31:17.607Z,21.30
2019-02-02T08:32:17.526Z,21.70
2019-02-02T08:33:17.490Z,22.00
2019-02-02T08:34:17.510Z,22.30
2019-02-02T08:35:17.457Z,22.20
2019-02-02T08:36:17.543Z,22.70
2019-02-02T08:37:17.441Z,22.40
2019-02-02T08:38:17.449Z,21.10
2019-02-02T08:39:28.737Z,23.30
2019-02-02T08:40:18.414Z,23.00
2019-02-02T08:41:17.390Z,22.70
2019-02-02T08:42:17.394Z,22.90
2019-02-02T08:43:17.397Z,23.30
2019-02-02T08:44:17.399Z,21.30
2019-02-02T08:45:17.357Z,23.40
2019-02-02T08:46:17.351Z,22.40
2019-02-02T08:47:17.346Z,22.30
2019-02-02T08:48:17.346Z,23.60
2019-02-02T08:49:17.382Z,24.90
2019-02-02T08:50:17.305Z,23.20
2019-02-02T08:51:17.297Z,28.50
2019-02-02T08:52:17.322Z,30.80
2019-02-02T08:53:17.317Z,32.80
2019-02-02T08:54:17.261Z,32.20
2019-02-02T08:55:17.312Z,29.80
2019-02-02T08:56:17.258Z,30.10
2019-02-02T08:57:17.377Z,27.30
2019-02-02T08:58:17.404Z,28.40
2019-02-02T08:59:17.479Z,26.70
2019-02-02T09:00:17.938Z,25.30
2019-02-02T09:01:17.256Z,26.30
2019-02-02T09:02:17.188Z,27.20
2019-02-02T09:03:17.164Z,24.00
2019-02-02T09:04:17.155Z,20.60
2019-02-02T09:05:17.293Z,22.80
2019-02-02T09:06:17.140Z,22.90
2019-02-02T09:07:17.127Z,22.50
2019-02-02T09:08:17.110Z,23.10
2019-02-02T09:09:17.248Z,22.60
2019-02-02T09:10:17.089Z,23.30
2019-02-02T09:11:17.099Z,20.70
2019-02-02T09:12:17.078Z,22.30
2019-02-02T09:13:17.124Z,22.20
2019-02-02T09:14:17.135Z,21.30
2019-02-02T09:15:17.296Z,21.70
2019-02-02T09:16:17.036Z,20.60
2019-02-02T09:17:17.126Z,22.40
2019-02-02T09:18:16.999Z,22.60
2019-02-02T09:19:17.053Z,21.30
2019-02-02T09:20:16.989Z,21.10
2019-02-02T09:21:16.986Z,22.40
2019-02-02T09:22:16.992Z,22.80
2019-02-02T09:23:16.953Z,22.90
2019-02-02T09:24:16.958Z,23.10
2019-02-02T09:25:16.967Z,21.70
2019-02-02T09:26:16.926Z,22.60
2019-02-02T09:27:16.959Z,21.60
2019-02-02T09:28:16.960Z,23.20
2019-02-02T09:29:16.996Z,22.70
2019-02-02T09:30:16.929Z,23.60
2019-02-02T09:31:16.918Z,23.40
2019-02-02T09:32:16.956Z,25.30
2019-02-02T09:33:16.860Z,24.70
2019-02-02T09:34:16.910Z,26.70
2019-02-02T09:35:16.867Z,23.40
2019-02-02T09:36:17.155Z,24.20
2019-02-02T09:37:16.919Z,24.20
2019-02-02T09:38:16.782Z,21.90
2019-02-02T09:39:16.851Z,24.40
2019-02-02T09:40:16.777Z,22.40
2019-02-02T09:41:16.761Z,23.50
2019-02-02T09:42:16.743Z,23.70
2019-02-02T09:43:16.764Z,23.20
2019-02-02T09:44:16.716Z,23.00
2019-02-02T09:45:16.734Z,23.00
2019-02-02T09:46:16.765Z,23.70
2019-02-02T09:47:16.762Z,23.40
2019-02-02T09:48:16.702Z,22.30
2019-02-02T09:49:16.708Z,23.00
2019-02-02T09:50:16.722Z,23.40
2019-02-02T09:51:16.705Z,23.00
2019-02-02T09:52:16.697Z,23.70
2019-02-02T09:53:16.698Z,22.90
2019-02-02T09:54:26.306Z,22.50
2019-02-02T09:55:17.606Z,21.30
2019-02-02T09:56:16.732Z,23.50
2019-02-02T09:57:17.162Z,22.20
2019-02-02T09:58:17.451Z,23.00
2019-02-02T09:59:16.631Z,25.00
2019-02-02T10:00:16.703Z,23.70
2019-02-02T10:01:27.110Z,23.40
2019-02-02T10:02:17.533Z,23.80
2019-02-02T10:03:16.519Z,23.90
2019-02-02T10:04:16.557Z,22.60
2019-02-02T10:05:19.042Z,25.60
2019-02-02T10:06:16.491Z,23.50
2019-02-02T10:07:16.478Z,22.60
2019-02-02T10:08:16.471Z,24.30
2019-02-02T10:09:16.461Z,24.70
2019-02-02T10:10:16.463Z,23.10
2019-02-02T10:11:16.427Z,25.60
2019-02-02T10:12:16.424Z,25.20
2019-02-02T10:13:16.413Z,26.90
2019-02-02T10:14:16.399Z,25.80
2019-02-02T10:15:16.417Z,25.70
2019-02-02T10:16:16.371Z,24.90
2019-02-02T10:17:16.369Z,25.30
2019-02-02T10:18:16.375Z,27.30
2019-02-02T10:19:16.414Z,24.30
2019-02-02T10:20:16.501Z,24.40
2019-02-02T10:21:16.323Z,25.10
2019-02-02T10:22:16.316Z,25.70
2019-02-02T10:23:16.347Z,25.90
2019-02-02T10:24:16.310Z,26.30
2019-02-02T10:25:16.281Z,26.30
2019-02-02T10:26:16.309Z,28.10
2019-02-02T10:27:16.284Z,26.00
2019-02-02T10:28:16.243Z,28.80
2019-02-02T10:29:16.327Z,25.10
2019-02-02T10:30:16.299Z,26.60
2019-02-02T10:31:16.318Z,23.70
2019-02-02T10:32:16.233Z,27.00
2019-02-02T10:33:16.191Z,30.70
2019-02-02T10:34:16.208Z,28.60
2019-02-02T10:35:16.194Z,28.70
2019-02-02T10:36:16.208Z,30.80
2019-02-02T10:37:16.150Z,29.70
2019-02-02T10:38:16.245Z,30.20
2019-02-02T10:39:16.577Z,33.60
2019-02-02T10:40:16.140Z,33.40
2019-02-02T10:41:16.186Z,35.00
2019-02-02T10:42:16.103Z,38.50
2019-02-02T10:43:16.129Z,35.70
2019-02-02T10:44:16.075Z,31.40
2019-02-02T10:45:16.130Z,31.70
2019-02-02T10:46:16.077Z,34.00
2019-02-02T10:47:16.122Z,29.90
2019-02-02T10:48:16.082Z,32.20
2019-02-02T10:49:16.086Z,31.60
2019-02-02T10:50:16.061Z,26.70
2019-02-02T10:51:16.076Z,27.70
2019-02-02T10:52:16.040Z,33.20
2019-02-02T10:53:16.050Z,31.10
2019-02-02T10:54:15.964Z,34.40
2019-02-02T10:55:15.958Z,28.30
2019-02-02T10:56:16.006Z,29.60
2019-02-02T10:57:15.932Z,39.70
2019-02-02T10:58:15.941Z,33.90
2019-02-02T10:59:16.000Z,30.20
2019-02-02T11:00:15.986Z,30.00
2019-02-02T11:01:15.933Z,28.30
2019-02-02T11:02:17.834Z,25.60
2019-02-02T11:03:15.883Z,27.90
2019-02-02T11:04:15.951Z,30.10
2019-02-02T11:05:15.895Z,28.80
2019-02-02T11:06:15.945Z,29.70
2019-02-02T11:07:15.950Z,29.90
2019-02-02T11:08:15.982Z,27.70
2019-02-02T11:09:15.917Z,27.30
2019-02-02T11:10:18.112Z,27.80
2019-02-02T11:11:15.856Z,29.90
2019-02-02T11:12:15.824Z,27.30
2019-02-02T11:13:16.432Z,29.90
2019-02-02T11:14:16.253Z,32.40
2019-02-02T11:15:15.951Z,29.30
2019-02-02T11:16:16.165Z,28.70
2019-02-02T11:17:15.916Z,30.60
2019-02-02T11:18:16.038Z,29.30
2019-02-02T11:19:15.990Z,28.90
2019-02-02T11:20:17.658Z,29.70
2019-02-02T11:21:15.871Z,29.10
2019-02-02T11:22:15.927Z,28.70
2019-02-02T11:23:15.816Z,31.70
2019-02-02T11:24:18.856Z,31.40
2019-02-02T11:25:15.867Z,31.00
2019-02-02T11:26:15.710Z,29.20
2019-02-02T11:27:15.746Z,31.60
2019-02-02T11:28:15.629Z,27.30
2019-02-02T11:29:15.603Z,26.70
2019-02-02T11:30:15.604Z,27.40
2019-02-02T11:31:15.620Z,25.20
2019-02-02T11:32:15.599Z,23.70
2019-02-02T11:33:15.573Z,23.80
2019-02-02T11:34:15.582Z,25.90
2019-02-02T11:35:15.679Z,25.40
2019-02-02T11:36:15.651Z,27.50
2019-02-02T11:37:15.534Z,25.60
2019-02-02T11:38:15.546Z,25.80
2019-02-02T11:39:15.478Z,27.10
2019-02-02T11:40:15.601Z,25.10
2019-02-02T11:41:15.605Z,28.40
2019-02-02T11:42:15.448Z,26.40
2019-02-02T11:43:15.444Z,25.10
2019-02-02T11:44:15.446Z,24.40
2019-02-02T11:45:15.416Z,28.20
2019-02-02T11:46:15.403Z,27.20
2019-02-02T11:47:15.405Z,27.70
2019-02-02T11:48:15.477Z,27.00
2019-02-02T11:49:15.494Z,27.70
2019-02-02T11:50:15.370Z,24.00
2019-02-02T11:51:15.365Z,24.20
2019-02-02T11:52:15.358Z,23.30
2019-02-02T11:53:15.323Z,26.40
2019-02-02T11:54:15.409Z,23.30
2019-02-02T11:55:15.344Z,25.50
2019-02-02T11:56:15.299Z,23.60
2019-02-02T11:57:15.287Z,25.10
2019-02-02T11:58:15.303Z,25.20
2019-02-02T11:59:15.279Z,24.50
2019-02-02T12:00:16.430Z,25.10
2019-02-02T12:01:15.251Z,24.50
2019-02-02T12:02:15.283Z,24.60
2019-02-02T12:03:15.321Z,23.60
2019-02-02T12:04:15.215Z,23.30
2019-02-02T12:05:15.215Z,23.30
2019-02-02T12:06:15.188Z,23.90
2019-02-02T12:07:15.184Z,22.20
2019-02-02T12:08:15.190Z,22.50
2019-02-02T12:09:15.167Z,23.60
2019-02-02T12:10:15.147Z,22.80
2019-02-02T12:11:15.175Z,21.50
2019-02-02T12:12:15.149Z,22.10
2019-02-02T12:13:15.177Z,21.80
2019-02-02T12:14:15.218Z,22.40
2019-02-02T12:15:16.147Z,24.20
2019-02-02T12:16:15.117Z,25.30
2019-02-02T12:17:15.093Z,23.00
2019-02-02T12:18:15.553Z,22.10
2019-02-02T12:19:15.090Z,23.10
2019-02-02T12:20:15.112Z,22.10
2019-02-02T12:21:15.068Z,24.70
2019-02-02T12:22:15.988Z,21.70
2019-02-02T12:23:15.152Z,23.60
2019-02-02T12:24:16.372Z,22.20
2019-02-02T12:25:15.101Z,22.20
2019-02-02T12:26:15.003Z,23.30
2019-02-02T12:27:14.976Z,23.50
2019-02-02T12:28:15.000Z,24.40
2019-02-02T12:29:15.949Z,22.90
2019-02-02T12:30:15.007Z,22.60
2019-02-02T12:31:14.951Z,23.10
2019-02-02T12:32:25.863Z,22.40
2019-02-02T12:33:15.896Z,23.00
2019-02-02T12:34:14.908Z,23.10
2019-02-02T12:35:14.907Z,22.60
2019-02-02T12:36:14.930Z,22.40
2019-02-02T12:37:14.851Z,26.00
2019-02-02T12:38:14.847Z,24.20
2019-02-02T12:39:14.979Z,23.90
2019-02-02T12:40:14.864Z,21.70
2019-02-02T12:41:14.834Z,22.90
2019-02-02T12:42:14.800Z,23.30
2019-02-02T12:43:14.910Z,23.90
2019-02-02T12:44:14.777Z,23.70
2019-02-02T12:45:14.772Z,22.90
2019-02-02T12:46:14.811Z,24.20
2019-02-02T12:47:14.755Z,23.90
2019-02-02T12:48:14.740Z,23.60
2019-02-02T12:49:14.750Z,23.90
2019-02-02T12:50:14.721Z,23.10
2019-02-02T12:51:14.744Z,24.00
2019-02-02T12:52:14.700Z,26.60